createdAt,value
2023-03-18T00:00:23.605Z,17.66
2023-03-18T00:01:25.788Z,17.66
2023-03-18T00:02:28.129Z,17.65
2023-03-18T00:03:34.493Z,17.63
2023-03-18T00:04:37.313Z,17.63
2023-03-18T00:05:39.570Z,17.61
2023-03-18T00:06:41.457Z,17.60
2023-03-18T00:07:43.280Z,17.54
2023-03-18T00:08:47.369Z,17.55
2023-03-18T00:09:49.178Z,17.58
2023-03-18T00:10:51.165Z,17.48
2023-03-18T00:11:54.059Z,17.56
2023-03-18T00:12:55.885Z,17.55
2023-03-18T00:13:59.376Z,17.51
2023-03-18T00:15:02.522Z,17.52
2023-03-18T00:16:06.720Z,17.52
2023-03-18T00:17:09.603Z,17.53
2023-03-18T00:18:11.413Z,17.52
2023-03-18T00:19:13.239Z,17.45
2023-03-18T00:20:18.330Z,17.47
2023-03-18T00:21:20.322Z,17.48
2023-03-18T00:22:22.833Z,17.46
2023-03-18T00:23:26.262Z,17.39
2023-03-18T00:24:28.378Z,17.44
2023-03-18T00:25:30.229Z,17.24
2023-03-18T00:26:32.112Z,17.43
2023-03-18T00:27:35.013Z,17.37
2023-03-18T00:28:37.557Z,17.43
2023-03-18T00:29:40.096Z,17.42
2023-03-18T00:30:43.377Z,17.42
2023-03-18T00:31:46.306Z,17.41
2023-03-18T00:32:49.159Z,17.39
2023-03-18T00:33:51.347Z,17.40
2023-03-18T00:34:53.596Z,17.39
2023-03-18T00:35:55.541Z,17.38
2023-03-18T00:36:57.668Z,17.37
2023-03-18T00:38:00.480Z,17.37
2023-03-18T00:39:03.727Z,17.36
2023-03-18T00:40:10.614Z,17.35
2023-03-18T00:41:16.223Z,17.37
2023-03-18T00:42:18.357Z,17.37
2023-03-18T00:43:22.810Z,17.34
2023-03-18T00:44:27.902Z,17.34
2023-03-18T00:45:30.052Z,17.35
2023-03-18T00:46:34.489Z,17.34
2023-03-18T00:47:38.596Z,17.27
2023-03-18T00:48:40.420Z,17.33
2023-03-18T00:49:42.743Z,17.31
2023-03-18T00:50:45.208Z,17.31
2023-03-18T00:51:47.638Z,17.31
2023-03-18T00:52:49.456Z,17.30
2023-03-18T00:53:58.890Z,17.30
2023-03-18T00:55:01.075Z,17.31
2023-03-18T00:56:04.014Z,17.30
2023-03-18T00:57:08.254Z,17.30
2023-03-18T00:58:12.706Z,17.29
2023-03-18T00:59:15.086Z,17.27
2023-03-18T01:00:19.177Z,17.27
2023-03-18T01:01:22.602Z,17.27
2023-03-18T01:02:24.982Z,17.27
2023-03-18T01:03:26.945Z,17.27
2023-03-18T01:04:28.745Z,17.25
2023-03-18T01:05:33.108Z,17.24
2023-03-18T01:06:37.590Z,17.23
2023-03-18T01:07:39.850Z,17.24
2023-03-18T01:08:42.501Z,17.24
2023-03-18T01:09:44.816Z,17.24
2023-03-18T01:10:46.738Z,17.23
2023-03-18T01:11:48.649Z,17.21
2023-03-18T01:12:50.595Z,17.21
2023-03-18T01:13:53.174Z,17.21
2023-03-18T01:14:55.000Z,17.20
2023-03-18T01:15:57.642Z,17.19
2023-03-18T01:16:59.479Z,17.19
2023-03-18T01:18:01.411Z,17.20
2023-03-18T01:19:04.501Z,17.19
2023-03-18T01:20:07.856Z,17.20
2023-03-18T01:21:10.586Z,17.16
2023-03-18T01:22:18.831Z,17.21
2023-03-18T01:23:25.189Z,17.20
2023-03-18T01:24:27.418Z,17.20
2023-03-18T01:25:29.386Z,17.19
2023-03-18T01:26:31.916Z,17.20
2023-03-18T01:27:36.285Z,17.18
2023-03-18T01:28:38.277Z,17.15
2023-03-18T01:29:41.511Z,17.09
2023-03-18T01:30:53.726Z,17.13
2023-03-18T01:31:57.287Z,17.18
2023-03-18T01:33:00.931Z,17.17
2023-03-18T01:34:04.825Z,16.96
2023-03-18T01:35:18.186Z,17.19
2023-03-18T01:36:22.685Z,17.18
2023-03-18T01:37:36.789Z,17.19
2023-03-18T01:38:44.387Z,17.20
2023-03-18T01:39:48.947Z,17.20
2023-03-18T01:40:57.897Z,17.18
2023-03-18T01:42:00.424Z,17.17
2023-03-18T01:43:12.637Z,17.16
2023-03-18T01:44:19.216Z,17.16
2023-03-18T01:45:29.245Z,17.16
2023-03-18T01:46:41.195Z,17.16
2023-03-18T01:47:44.882Z,17.16
2023-03-18T01:48:52.129Z,17.16
2023-03-18T01:49:54.212Z,17.15
2023-03-18T01:51:00.354Z,17.12
2023-03-18T01:52:05.583Z,17.13
2023-03-18T01:53:12.750Z,17.12
2023-03-18T01:54:15.488Z,17.13
2023-03-18T01:55:23.926Z,17.06
2023-03-18T01:56:26.310Z,17.06
2023-03-18T01:57:31.200Z,17.00
2023-03-18T01:58:38.919Z,17.05
2023-03-18T01:59:42.557Z,17.07
2023-03-18T02:00:51.783Z,17.12
2023-03-18T02:02:02.909Z,17.14
2023-03-18T02:03:07.748Z,17.14
2023-03-18T02:04:11.272Z,17.13
2023-03-18T02:05:20.873Z,17.03
2023-03-18T02:06:24.170Z,17.11
2023-03-18T02:07:35.884Z,17.13
2023-03-18T02:08:39.602Z,17.11
2023-03-18T02:09:41.669Z,17.11
2023-03-18T02:10:45.531Z,17.04
2023-03-18T02:13:00.677Z,17.09
2023-03-18T02:14:13.302Z,17.11
2023-03-18T02:15:18.440Z,17.10
2023-03-18T02:16:35.261Z,17.10
2023-03-18T02:17:42.194Z,17.04
2023-03-18T02:18:50.514Z,17.11
2023-03-18T02:20:27.823Z,17.14
2023-03-18T02:21:40.424Z,17.18
2023-03-18T02:23:30.139Z,17.24
2023-03-18T02:24:50.178Z,17.21
2023-03-18T02:26:03.569Z,17.18
2023-03-18T02:27:21.849Z,17.17
2023-03-18T02:28:30.155Z,17.11
2023-03-18T02:29:35.320Z,17.11
2023-03-18T02:30:47.740Z,17.10
2023-03-18T02:31:51.633Z,17.10
2023-03-18T02:32:59.941Z,17.08
2023-03-18T02:34:02.676Z,16.99
2023-03-18T02:35:08.895Z,17.05
2023-03-18T02:36:19.948Z,17.06
2023-03-18T02:37:22.071Z,17.06
2023-03-18T02:38:24.853Z,17.04
2023-03-18T02:39:27.212Z,17.04
2023-03-18T02:40:34.730Z,17.05
2023-03-18T02:41:40.504Z,17.06
2023-03-18T02:42:42.859Z,17.05
2023-03-18T02:43:45.575Z,16.98
2023-03-18T02:44:48.234Z,17.03
2023-03-18T02:46:41.020Z,17.16
2023-03-18T02:47:45.336Z,17.13
2023-03-18T02:48:49.082Z,17.05
2023-03-18T02:49:51.972Z,17.08
2023-03-18T02:50:55.471Z,17.06
2023-03-18T02:51:57.329Z,17.06
2023-03-18T02:52:59.615Z,17.03
2023-03-18T02:54:07.048Z,17.02
2023-03-18T02:55:09.732Z,17.04
2023-03-18T02:56:12.160Z,17.04
2023-03-18T02:57:15.773Z,17.02
2023-03-18T02:58:21.029Z,17.02
2023-03-18T02:59:27.186Z,17.06
2023-03-18T03:00:29.112Z,17.00
2023-03-18T03:01:33.818Z,17.03
2023-03-18T03:02:37.162Z,17.04
2023-03-18T03:03:40.308Z,17.02
2023-03-18T03:04:44.164Z,17.02
2023-03-18T03:05:46.146Z,17.02
2023-03-18T03:06:48.224Z,17.02
2023-03-18T03:07:53.190Z,16.97
2023-03-18T03:08:55.226Z,17.03
2023-03-18T03:09:58.895Z,17.03
2023-03-18T03:11:01.263Z,17.02
2023-03-18T03:12:06.659Z,17.01
2023-03-18T03:13:10.239Z,17.04
2023-03-18T03:14:14.221Z,16.96
2023-03-18T03:15:17.225Z,17.03
2023-03-18T03:16:24.319Z,17.04
2023-03-18T03:17:26.197Z,17.03
2023-03-18T03:18:30.088Z,17.03
2023-03-18T03:19:31.890Z,17.02
2023-03-18T03:20:35.663Z,17.03
2023-03-18T03:21:37.770Z,17.03
2023-03-18T03:22:39.770Z,17.02
2023-03-18T03:23:42.767Z,17.02
2023-03-18T03:24:45.201Z,17.02
2023-03-18T03:25:49.462Z,17.02
2023-03-18T03:26:51.293Z,17.02
2023-03-18T03:27:53.774Z,17.01
2023-03-18T03:28:55.910Z,16.95
2023-03-18T03:29:57.709Z,17.01
2023-03-18T03:31:00.052Z,16.97
2023-03-18T03:32:02.215Z,17.01
2023-03-18T03:33:04.875Z,17.02
2023-03-18T03:34:08.506Z,16.97
2023-03-18T03:35:14.171Z,17.01
2023-03-18T03:36:17.960Z,16.97
2023-03-18T03:37:19.745Z,16.97
2023-03-18T03:38:23.252Z,17.02
2023-03-18T03:39:25.164Z,16.95
2023-03-18T03:40:28.512Z,16.83
2023-03-18T03:41:30.480Z,17.01
2023-03-18T03:42:32.309Z,16.91
2023-03-18T03:43:34.249Z,17.00
2023-03-18T03:44:36.547Z,16.96
2023-03-18T03:45:38.697Z,17.01
2023-03-18T03:46:40.767Z,16.99
2023-03-18T03:47:43.893Z,16.99
2023-03-18T03:48:45.807Z,17.00
2023-03-18T03:49:48.869Z,16.96
2023-03-18T03:50:52.020Z,17.00
2023-03-18T03:51:54.105Z,17.00
2023-03-18T03:52:58.411Z,16.88
2023-03-18T03:54:02.576Z,16.95
2023-03-18T03:55:10.515Z,17.00
2023-03-18T03:56:12.575Z,16.95
2023-03-18T03:57:14.494Z,17.01
2023-03-18T03:58:16.342Z,16.99
2023-03-18T03:59:19.915Z,17.01
2023-03-18T04:00:47.878Z,16.99
2023-03-18T04:01:49.867Z,16.96
2023-03-18T04:02:53.327Z,17.03
2023-03-18T04:03:57.444Z,17.03
2023-03-18T04:05:00.219Z,17.02
2023-03-18T04:06:06.692Z,17.01
2023-03-18T04:07:11.945Z,17.01
2023-03-18T04:08:13.776Z,17.01
2023-03-18T04:09:15.840Z,17.01
2023-03-18T04:10:20.079Z,17.00
2023-03-18T04:11:22.291Z,17.01
2023-03-18T04:12:24.785Z,17.00
2023-03-18T04:13:32.230Z,17.00
2023-03-18T04:14:34.032Z,17.01
2023-03-18T04:15:35.942Z,16.99
2023-03-18T04:16:44.901Z,16.73
2023-03-18T04:17:47.011Z,17.01
2023-03-18T04:18:51.961Z,16.93
2023-03-18T04:19:57.361Z,17.02
2023-03-18T04:21:04.655Z,17.02
2023-03-18T04:22:20.336Z,17.03
2023-03-18T04:23:22.350Z,17.02
2023-03-18T04:24:24.516Z,17.01
2023-03-18T04:25:26.399Z,17.00
2023-03-18T04:26:29.027Z,17.01
2023-03-18T04:27:34.315Z,17.00
2023-03-18T04:28:41.236Z,17.02
2023-03-18T04:29:46.653Z,16.99
2023-03-18T04:30:49.078Z,17.01
2023-03-18T04:31:52.522Z,17.01
2023-03-18T04:32:56.151Z,17.00
2023-03-18T04:33:59.865Z,17.00
2023-03-18T04:35:01.958Z,17.00
2023-03-18T04:36:04.079Z,17.01
2023-03-18T04:37:06.442Z,17.00
2023-03-18T04:38:10.442Z,17.00
2023-03-18T04:39:12.647Z,16.99
2023-03-18T04:40:14.733Z,17.01
2023-03-18T04:41:16.575Z,17.01
2023-03-18T04:42:18.398Z,17.00
2023-03-18T04:43:20.481Z,16.99
2023-03-18T04:44:25.569Z,17.01
2023-03-18T04:45:28.214Z,17.00
2023-03-18T04:46:32.792Z,17.02
2023-03-18T04:47:36.009Z,17.00
2023-03-18T04:48:41.785Z,16.99
2023-03-18T04:49:45.007Z,16.98
2023-03-18T04:50:48.836Z,17.03
2023-03-18T04:51:56.378Z,17.04
2023-03-18T04:53:04.347Z,17.03
2023-03-18T04:54:07.208Z,17.02
2023-03-18T04:55:10.718Z,17.02
2023-03-18T04:56:14.294Z,17.02
2023-03-18T04:57:26.113Z,17.05
2023-03-18T04:58:30.425Z,17.04
2023-03-18T04:59:52.628Z,17.00
2023-03-18T05:00:54.871Z,17.04
2023-03-18T05:02:01.749Z,17.05
2023-03-18T05:03:04.265Z,17.04
2023-03-18T05:04:06.874Z,17.03
2023-03-18T05:05:19.752Z,17.05
2023-03-18T05:06:30.406Z,17.03
2023-03-18T05:07:46.134Z,17.09
2023-03-18T05:08:52.133Z,17.00
2023-03-18T05:09:54.424Z,16.99
2023-03-18T05:10:57.017Z,17.03
2023-03-18T05:11:59.091Z,17.02
2023-03-18T05:13:06.503Z,17.03
2023-03-18T05:14:10.972Z,17.04
2023-03-18T05:15:17.098Z,16.94
2023-03-18T05:16:24.777Z,16.98
2023-03-18T05:17:27.155Z,17.02
2023-03-18T05:18:33.776Z,16.97
2023-03-18T05:19:38.360Z,16.96
2023-03-18T05:20:50.509Z,16.97
2023-03-18T05:21:54.650Z,17.05
2023-03-18T05:22:58.261Z,16.98
2023-03-18T05:24:17.684Z,17.07
2023-03-18T05:25:21.544Z,17.05
2023-03-18T05:26:23.584Z,17.04
2023-03-18T05:27:28.382Z,17.01
2023-03-18T05:28:37.813Z,17.05
2023-03-18T05:29:50.701Z,17.06
2023-03-18T05:30:58.141Z,17.06
2023-03-18T05:32:00.458Z,17.04
2023-03-18T05:33:03.790Z,17.03
2023-03-18T05:34:31.833Z,17.05
2023-03-18T05:35:34.482Z,17.06
2023-03-18T05:36:36.807Z,17.03
2023-03-18T05:37:43.388Z,17.03
2023-03-18T05:38:46.389Z,17.03
2023-03-18T05:39:49.859Z,17.02
2023-03-18T05:40:54.618Z,16.96
2023-03-18T05:42:04.785Z,17.02
2023-03-18T05:43:07.618Z,17.03
2023-03-18T05:44:19.651Z,17.01
2023-03-18T05:45:24.719Z,17.03
2023-03-18T05:46:31.921Z,17.03
2023-03-18T05:47:57.300Z,17.08
2023-03-18T05:49:00.673Z,17.07
2023-03-18T05:50:08.146Z,17.06
2023-03-18T05:51:11.372Z,17.04
2023-03-18T05:52:16.514Z,17.02
2023-03-18T05:53:21.186Z,17.02
2023-03-18T05:54:28.092Z,17.03
2023-03-18T05:55:32.074Z,17.01
2023-03-18T05:56:34.135Z,17.03
2023-03-18T05:57:40.435Z,17.02
2023-03-18T05:58:44.474Z,17.03
2023-03-18T05:59:55.483Z,17.05
2023-03-18T06:00:59.789Z,17.03
2023-03-18T06:02:02.177Z,17.01
2023-03-18T06:03:04.932Z,17.02
2023-03-18T06:04:09.275Z,17.02
2023-03-18T06:05:12.255Z,17.01
2023-03-18T06:06:14.087Z,17.00
2023-03-18T06:07:15.966Z,16.99
2023-03-18T06:08:17.902Z,16.96
2023-03-18T06:09:19.697Z,17.01
2023-03-18T06:10:23.346Z,17.00
2023-03-18T06:11:25.705Z,17.02
2023-03-18T06:12:28.951Z,16.97
2023-03-18T06:13:30.898Z,17.01
2023-03-18T06:14:33.285Z,17.01
2023-03-18T06:15:37.877Z,17.01
2023-03-18T06:16:41.806Z,17.00
2023-03-18T06:17:44.019Z,16.96
2023-03-18T06:18:45.879Z,17.01
2023-03-18T06:19:50.900Z,17.01
2023-03-18T06:20:54.329Z,16.94
2023-03-18T06:21:56.199Z,17.01
2023-03-18T06:22:58.098Z,17.01
2023-03-18T06:24:02.346Z,16.92
2023-03-18T06:25:08.306Z,17.02
2023-03-18T06:26:13.217Z,17.02
2023-03-18T06:27:22.356Z,17.04
2023-03-18T06:28:30.243Z,17.05
2023-03-18T06:29:37.004Z,16.93
2023-03-18T06:30:46.845Z,17.06
2023-03-18T06:31:48.728Z,17.03
2023-03-18T06:32:56.159Z,17.05
2023-03-18T06:34:01.584Z,16.98
2023-03-18T06:35:08.582Z,17.06
2023-03-18T06:36:12.778Z,17.04
2023-03-18T06:37:20.049Z,17.05
2023-03-18T06:38:23.072Z,17.04
2023-03-18T06:39:25.814Z,17.04
2023-03-18T06:40:27.821Z,17.03
2023-03-18T06:41:31.035Z,17.03
2023-03-18T06:42:51.384Z,17.07
2023-03-18T06:44:05.306Z,17.04
2023-03-18T06:45:07.909Z,17.06
2023-03-18T06:46:23.936Z,17.06
2023-03-18T06:47:26.473Z,16.96
2023-03-18T06:48:30.846Z,17.06
2023-03-18T06:49:33.542Z,17.05
2023-03-18T06:50:44.564Z,17.07
2023-03-18T06:51:54.539Z,17.07
2023-03-18T06:52:56.709Z,17.06
2023-03-18T06:54:03.492Z,17.05
2023-03-18T06:55:07.543Z,17.05
2023-03-18T06:57:32.733Z,17.06
2023-03-18T06:58:34.497Z,16.85
2023-03-18T06:59:42.502Z,17.00
2023-03-18T07:00:45.509Z,17.05
2023-03-18T07:01:53.476Z,17.04
2023-03-18T07:02:56.347Z,17.07
2023-03-18T07:04:01.134Z,17.02
2023-03-18T07:05:04.553Z,17.07
2023-03-18T07:06:12.317Z,17.07
2023-03-18T07:07:15.582Z,17.09
2023-03-18T07:08:17.718Z,17.09
2023-03-18T07:09:20.157Z,17.09
2023-03-18T07:10:29.945Z,17.02
2023-03-18T07:11:42.501Z,17.16
2023-03-18T07:12:48.346Z,17.11
2023-03-18T07:13:53.297Z,17.12
2023-03-18T07:15:08.924Z,17.23
2023-03-18T07:16:11.025Z,17.25
2023-03-18T07:17:14.525Z,17.23
2023-03-18T07:18:16.737Z,17.22
2023-03-18T07:19:21.803Z,17.28
2023-03-18T07:20:24.108Z,17.34
2023-03-18T07:21:26.591Z,17.37
2023-03-18T07:22:29.233Z,17.39
2023-03-18T07:23:31.247Z,17.44
2023-03-18T07:24:33.146Z,17.48
2023-03-18T07:25:35.085Z,17.50
2023-03-18T07:26:37.569Z,17.53
2023-03-18T07:27:40.562Z,17.57
2023-03-18T07:28:42.541Z,17.62
2023-03-18T07:29:44.526Z,17.66
2023-03-18T07:30:47.163Z,17.65
2023-03-18T07:31:49.133Z,17.73
2023-03-18T07:32:51.330Z,17.76
2023-03-18T07:33:53.294Z,17.80
2023-03-18T07:34:55.108Z,17.83
2023-03-18T07:35:57.718Z,17.87
2023-03-18T07:36:59.694Z,17.89
2023-03-18T07:38:01.480Z,17.92
2023-03-18T07:39:04.556Z,17.95
2023-03-18T07:40:08.090Z,18.00
2023-03-18T07:41:09.869Z,18.04
2023-03-18T07:42:11.902Z,18.02
2023-03-18T07:43:20.481Z,18.11
2023-03-18T07:44:23.311Z,18.04
2023-03-18T07:45:25.676Z,18.16
2023-03-18T07:46:27.810Z,18.01
2023-03-18T07:47:29.674Z,18.21
2023-03-18T07:48:31.718Z,18.19
2023-03-18T07:49:33.636Z,18.26
2023-03-18T07:50:35.600Z,18.27
2023-03-18T07:51:37.745Z,18.24
2023-03-18T07:52:39.720Z,18.31
2023-03-18T07:53:42.292Z,18.33
2023-03-18T07:54:44.494Z,18.34
2023-03-18T07:55:47.203Z,18.37
2023-03-18T07:56:49.054Z,18.39
2023-03-18T07:57:51.335Z,18.40
2023-03-18T07:58:53.458Z,18.42
2023-03-18T07:59:55.293Z,18.44
2023-03-18T08:00:57.720Z,18.42
2023-03-18T08:01:59.912Z,18.48
2023-03-18T08:03:02.307Z,18.49
2023-03-18T08:04:04.384Z,18.51
2023-03-18T08:05:09.838Z,18.52
2023-03-18T08:06:12.751Z,18.49
2023-03-18T08:07:14.546Z,18.52
2023-03-18T08:08:16.687Z,18.55
2023-03-18T08:09:18.842Z,18.54
2023-03-18T08:10:20.760Z,18.47
2023-03-18T08:11:22.537Z,18.49
2023-03-18T08:12:24.740Z,18.58
2023-03-18T08:13:27.273Z,18.59
2023-03-18T08:14:29.066Z,18.61
2023-03-18T08:15:31.781Z,18.61
2023-03-18T08:16:33.771Z,18.58
2023-03-18T08:17:36.642Z,18.63
2023-03-18T08:18:38.619Z,18.65
2023-03-18T08:19:40.379Z,18.65
2023-03-18T08:20:42.336Z,18.65
2023-03-18T08:21:44.201Z,18.65
2023-03-18T08:22:46.118Z,18.66
2023-03-18T08:23:48.671Z,18.66
2023-03-18T08:24:50.448Z,18.61
2023-03-18T08:25:52.759Z,18.68
2023-03-18T08:26:54.717Z,18.67
2023-03-18T08:27:56.730Z,18.68
2023-03-18T08:28:58.715Z,18.70
2023-03-18T08:30:03.042Z,18.67
2023-03-18T08:31:05.769Z,18.50
2023-03-18T08:32:07.942Z,18.72
2023-03-18T08:33:10.634Z,18.71
2023-03-18T08:34:12.722Z,18.73
2023-03-18T08:35:14.706Z,18.73
2023-03-18T08:36:16.666Z,18.74
2023-03-18T08:37:18.766Z,18.75
2023-03-18T08:38:20.668Z,18.70
2023-03-18T08:39:22.789Z,18.72
2023-03-18T08:40:26.162Z,18.76
2023-03-18T08:41:28.890Z,18.79
2023-03-18T08:42:31.175Z,18.79
2023-03-18T08:43:33.606Z,18.81
2023-03-18T08:44:35.445Z,18.82
2023-03-18T08:45:38.086Z,18.83
2023-03-18T08:46:40.039Z,18.83
2023-03-18T08:47:41.897Z,18.86
2023-03-18T08:48:43.763Z,18.88
2023-03-18T08:49:45.564Z,18.89
2023-03-18T08:50:48.172Z,18.82
2023-03-18T08:51:50.782Z,18.92
2023-03-18T08:52:52.557Z,18.89
2023-03-18T08:53:54.437Z,18.94
2023-03-18T08:54:56.276Z,18.95
2023-03-18T08:55:58.111Z,18.98
2023-03-18T08:57:00.704Z,18.99
2023-03-18T08:58:04.456Z,19.00
2023-03-18T08:59:06.303Z,19.01
2023-03-18T09:00:09.071Z,19.01
2023-03-18T09:01:12.112Z,19.05
2023-03-18T09:02:17.187Z,18.97
2023-03-18T09:03:19.129Z,19.08
2023-03-18T09:04:21.024Z,19.03
2023-03-18T09:05:23.057Z,19.10
2023-03-18T09:06:25.106Z,19.12
2023-03-18T09:07:27.031Z,19.13
2023-03-18T09:08:30.819Z,19.14
2023-03-18T09:09:43.164Z,19.17
2023-03-18T09:10:46.713Z,19.17
2023-03-18T09:11:49.845Z,19.21
2023-03-18T09:12:51.989Z,19.22
2023-03-18T09:13:53.852Z,19.20
2023-03-18T09:14:56.087Z,19.24
2023-03-18T09:15:58.186Z,19.24
2023-03-18T09:17:01.080Z,19.23
2023-03-18T09:18:11.184Z,19.28
2023-03-18T09:19:13.912Z,19.25
2023-03-18T09:20:17.346Z,19.24
2023-03-18T09:21:19.318Z,19.32
2023-03-18T09:22:21.872Z,19.32
2023-03-18T09:23:23.930Z,19.33
2023-03-18T09:24:25.861Z,19.33
2023-03-18T09:25:28.024Z,19.35
2023-03-18T09:26:29.974Z,19.27
2023-03-18T09:27:32.276Z,19.30
2023-03-18T09:28:34.285Z,19.29
2023-03-18T09:29:36.670Z,19.37
2023-03-18T09:30:39.182Z,19.38
2023-03-18T09:31:40.978Z,19.29
2023-03-18T09:32:42.990Z,19.38
2023-03-18T09:33:44.888Z,19.38
2023-03-18T09:34:46.748Z,19.38
2023-03-18T09:35:49.606Z,19.38
2023-03-18T09:36:51.668Z,19.40
2023-03-18T09:37:54.060Z,19.32
2023-03-18T09:38:56.295Z,19.39
2023-03-18T09:39:58.548Z,19.38
2023-03-18T09:41:25.194Z,19.43
2023-03-18T09:42:57.461Z,19.49
2023-03-18T09:44:23.996Z,19.53
2023-03-18T09:45:47.147Z,19.48
2023-03-18T09:47:04.510Z,19.50
2023-03-18T09:48:29.065Z,19.53
2023-03-18T09:49:49.571Z,19.53
2023-03-18T09:51:13.472Z,19.48
2023-03-18T09:52:26.405Z,19.49
2023-03-18T09:53:46.088Z,19.46
2023-03-18T09:54:56.644Z,19.46
2023-03-18T09:56:02.857Z,19.42
2023-03-18T09:57:06.980Z,19.41
2023-03-18T09:58:21.078Z,19.38
2023-03-18T09:59:31.391Z,19.41
2023-03-18T10:00:38.364Z,19.40
2023-03-18T10:01:42.957Z,19.38
2023-03-18T10:02:49.742Z,19.38
2023-03-18T10:04:09.707Z,19.39
2023-03-18T10:05:54.143Z,19.33
2023-03-18T10:07:05.373Z,19.45
2023-03-18T10:08:17.158Z,19.31
2023-03-18T10:09:34.365Z,19.37
2023-03-18T10:10:42.382Z,19.34
2023-03-18T10:11:48.263Z,19.37
2023-03-18T10:12:57.173Z,19.36
2023-03-18T10:14:07.125Z,19.37
2023-03-18T10:15:19.215Z,19.36
2023-03-18T10:16:27.311Z,19.34
2023-03-18T10:17:35.497Z,19.33
2023-03-18T10:18:43.371Z,19.34
2023-03-18T10:19:57.838Z,19.34
2023-03-18T10:21:29.620Z,19.37
2023-03-18T10:22:38.457Z,19.38
2023-03-18T10:24:05.981Z,19.36
2023-03-18T10:25:17.717Z,19.38
2023-03-18T10:26:29.485Z,19.35
2023-03-18T10:27:57.549Z,19.38
2023-03-18T10:29:32.074Z,19.42
2023-03-18T10:30:51.083Z,19.39
2023-03-18T10:32:01.666Z,19.37
2023-03-18T10:33:27.952Z,19.31
2023-03-18T10:34:52.763Z,19.40
2023-03-18T10:36:00.728Z,19.36
2023-03-18T10:37:34.431Z,19.36
2023-03-18T10:38:58.024Z,19.38
2023-03-18T10:40:00.285Z,19.36
2023-03-18T10:41:02.442Z,19.21
2023-03-18T10:42:20.905Z,19.24
2023-03-18T10:43:28.245Z,19.29
2023-03-18T10:44:39.021Z,19.27
2023-03-18T10:45:42.565Z,19.24
2023-03-18T10:46:47.722Z,19.25
2023-03-18T10:48:00.838Z,19.25
2023-03-18T10:49:11.448Z,19.18
2023-03-18T10:50:23.441Z,19.26
2023-03-18T10:51:44.029Z,19.24
2023-03-18T10:53:01.465Z,19.30
2023-03-18T10:54:24.964Z,19.33
2023-03-18T10:55:31.264Z,19.25
2023-03-18T10:56:35.544Z,19.29
2023-03-18T10:57:37.535Z,19.26
2023-03-18T10:58:41.297Z,19.25
2023-03-18T10:59:47.824Z,19.23
2023-03-18T11:00:51.276Z,19.24
2023-03-18T11:02:10.162Z,19.24
2023-03-18T11:03:21.841Z,19.25
2023-03-18T11:04:28.476Z,19.28
2023-03-18T11:05:35.175Z,19.25
2023-03-18T11:06:41.848Z,19.24
2023-03-18T11:08:35.640Z,19.33
2023-03-18T11:09:40.145Z,19.33
2023-03-18T11:10:48.766Z,19.26
2023-03-18T11:11:57.013Z,19.27
2023-03-18T11:13:08.172Z,19.26
2023-03-18T11:14:20.896Z,19.26
2023-03-18T11:15:24.208Z,19.22
2023-03-18T11:16:34.454Z,19.23
2023-03-18T11:17:39.022Z,19.24
2023-03-18T11:18:52.860Z,19.20
2023-03-18T11:20:05.816Z,19.25
2023-03-18T11:21:13.063Z,19.26
2023-03-18T11:22:25.217Z,19.25
2023-03-18T11:23:48.858Z,19.25
2023-03-18T11:25:16.464Z,19.32
2023-03-18T11:26:22.192Z,19.28
2023-03-18T11:27:26.733Z,19.20
2023-03-18T11:28:30.140Z,19.18
2023-03-18T11:29:34.524Z,19.22
2023-03-18T11:30:48.274Z,19.22
2023-03-18T11:31:58.142Z,19.23
2023-03-18T11:33:23.860Z,19.27
2023-03-18T11:34:27.696Z,19.27
2023-03-18T11:35:39.548Z,19.24
2023-03-18T11:36:41.649Z,19.26
2023-03-18T11:37:43.485Z,19.25
2023-03-18T11:38:57.282Z,19.25
2023-03-18T11:40:29.337Z,19.30
2023-03-18T11:41:31.212Z,19.31
2023-03-18T11:42:33.604Z,19.24
2023-03-18T11:43:36.829Z,19.26
2023-03-18T11:44:38.638Z,19.26
2023-03-18T11:46:03.338Z,19.29
2023-03-18T11:47:19.717Z,19.30
2023-03-18T11:48:32.120Z,19.31
2023-03-18T11:49:34.489Z,19.30
2023-03-18T11:50:43.078Z,19.28
2023-03-18T11:52:03.186Z,19.29
2023-03-18T11:53:17.809Z,19.33
2023-03-18T11:54:36.644Z,19.32
2023-03-18T11:55:41.952Z,19.33
2023-03-18T11:57:11.784Z,19.35
2023-03-18T11:58:52.679Z,19.40
2023-03-18T12:00:25.465Z,19.46
2023-03-18T12:01:57.771Z,19.47
2023-03-18T12:03:37.028Z,19.48
2023-03-18T12:04:46.156Z,19.47
2023-03-18T12:06:13.182Z,19.42
2023-03-18T12:07:26.548Z,19.41
2023-03-18T12:08:45.131Z,19.43
2023-03-18T12:09:49.865Z,19.42
2023-03-18T12:11:14.695Z,19.43
2023-03-18T12:12:25.634Z,19.44
2023-03-18T12:13:36.953Z,19.38
2023-03-18T12:15:03.830Z,19.46
2023-03-18T12:16:23.853Z,19.47
2023-03-18T12:17:46.062Z,19.48
2023-03-18T12:19:11.089Z,19.47
2023-03-18T12:20:34.947Z,19.51
2023-03-18T12:22:01.311Z,19.52
2023-03-18T12:23:27.494Z,19.43
2023-03-18T12:24:54.795Z,19.59
2023-03-18T12:26:08.467Z,19.62
2023-03-18T12:27:20.351Z,19.63
2023-03-18T12:28:34.513Z,19.66
2023-03-18T12:29:45.952Z,19.67
2023-03-18T12:31:14.795Z,19.69
2023-03-18T12:32:38.149Z,19.73
2023-03-18T12:33:59.245Z,19.76
2023-03-18T12:35:20.700Z,19.77
2023-03-18T12:36:39.746Z,19.75
2023-03-18T12:38:10.096Z,19.78
2023-03-18T12:39:22.885Z,19.78
2023-03-18T12:40:39.866Z,19.78
2023-03-18T12:42:02.617Z,19.77
2023-03-18T12:43:52.276Z,19.83
2023-03-18T12:45:07.346Z,19.82
2023-03-18T12:46:34.282Z,19.82
2023-03-18T12:47:50.810Z,19.77
2023-03-18T12:48:59.435Z,19.76
2023-03-18T12:50:27.093Z,19.77
2023-03-18T12:51:42.404Z,19.76
2023-03-18T12:52:48.471Z,19.71
2023-03-18T12:53:55.371Z,19.70
2023-03-18T12:55:04.155Z,19.68
2023-03-18T12:56:21.656Z,19.67
2023-03-18T12:57:37.992Z,19.60
2023-03-18T12:58:52.767Z,19.71
2023-03-18T13:00:06.739Z,19.70
2023-03-18T13:01:18.241Z,19.68
2023-03-18T13:02:41.770Z,19.70
2023-03-18T13:03:48.688Z,19.69
2023-03-18T13:04:56.765Z,19.66
2023-03-18T13:06:29.562Z,19.68
2023-03-18T13:07:58.063Z,19.70
2023-03-18T13:09:17.247Z,19.71
2023-03-18T13:10:23.562Z,19.62
2023-03-18T13:11:47.206Z,19.71
2023-03-18T13:12:55.743Z,19.68
2023-03-18T13:14:05.203Z,19.66
2023-03-18T13:15:22.702Z,19.57
2023-03-18T13:16:25.597Z,19.66
2023-03-18T13:17:33.122Z,19.62
2023-03-18T13:18:45.188Z,19.56
2023-03-18T13:19:47.243Z,19.63
2023-03-18T13:20:51.842Z,19.61
2023-03-18T13:22:25.280Z,19.62
2023-03-18T13:23:45.625Z,19.71
2023-03-18T13:25:03.672Z,19.42
2023-03-18T13:26:29.853Z,19.70
2023-03-18T13:27:38.151Z,19.73
2023-03-18T13:28:48.214Z,19.70
2023-03-18T13:30:31.207Z,19.76
2023-03-18T13:31:49.866Z,19.74
2023-03-18T13:33:08.041Z,19.78
2023-03-18T13:34:09.835Z,19.77
2023-03-18T13:35:55.894Z,19.82
2023-03-18T13:37:22.802Z,19.81
2023-03-18T13:39:05.926Z,19.84
2023-03-18T13:40:32.342Z,19.85
2023-03-18T13:41:40.253Z,19.76
2023-03-18T13:42:44.589Z,19.81
2023-03-18T13:43:49.512Z,19.77
2023-03-18T13:45:07.434Z,19.77
2023-03-18T13:46:27.277Z,19.81
2023-03-18T13:47:31.612Z,19.81
2023-03-18T13:48:35.481Z,19.78
2023-03-18T13:49:39.561Z,19.77
2023-03-18T13:50:43.665Z,19.77
2023-03-18T13:52:23.476Z,19.84
2023-03-18T13:53:29.911Z,19.84
2023-03-18T13:54:39.143Z,19.83
2023-03-18T13:55:47.521Z,19.77
2023-03-18T13:56:55.524Z,19.82
2023-03-18T13:58:23.101Z,19.83
2023-03-18T13:59:34.052Z,19.87
2023-03-18T14:00:40.522Z,19.78
2023-03-18T14:01:49.693Z,19.83
2023-03-18T14:03:30.677Z,19.87
2023-03-18T14:04:46.361Z,19.90
2023-03-18T14:05:50.403Z,19.88
2023-03-18T14:07:11.630Z,19.84
2023-03-18T14:08:37.394Z,19.90
2023-03-18T14:10:11.704Z,19.92
2023-03-18T14:11:28.581Z,19.92
2023-03-18T14:12:33.398Z,19.89
2023-03-18T14:13:36.218Z,19.86
2023-03-18T14:15:13.112Z,19.85
2023-03-18T14:16:23.353Z,19.88
2023-03-18T14:17:38.302Z,19.88
2023-03-18T14:18:40.443Z,19.86
2023-03-18T14:19:45.138Z,19.80
2023-03-18T14:20:53.526Z,19.81
2023-03-18T14:22:07.957Z,19.82
2023-03-18T14:23:33.353Z,19.80
2023-03-18T14:24:35.662Z,19.84
2023-03-18T14:25:41.506Z,19.81
2023-03-18T14:26:58.447Z,19.81
2023-03-18T14:28:16.357Z,19.83
2023-03-18T14:29:26.674Z,19.83
2023-03-18T14:30:35.007Z,19.82
2023-03-18T14:31:39.475Z,19.80
2023-03-18T14:32:41.716Z,19.79
2023-03-18T14:34:13.264Z,19.80
2023-03-18T14:35:17.782Z,19.83